Flight Track Log - Related Links

Times and Time Zones

All times are in EDT time to prevent confusion due to time zone crossing. See the SKW5510 flight status page for this flight to view local times or setup timezone preferences in your user account.

Time Position Orientation Groundspeed Altitude Reporting Facility
EDT Latitude Longitude Course Direction KTS MPH feet Rate Location/Type
08:52AM 36.6264 -121.8981 90° East 188 216 33,000  Level Oakland Center
08:53AM 36.6597 -121.8511 48° Northeast 262 302 4,300 -13,300 Descending Oakland Center
08:54AM 36.6606 -121.4257 85° East  Level FlightAware Approximate
08:54AM 36.6653 -121.7714 85° East 233 268 6,400  Level Oakland Center
08:55AM 36.6708 -121.2845 84° East  Level FlightAware Approximate
08:55AM 36.6781 -121.6753 81° East 263 303 9,000  Level Oakland Center
08:56AM 36.6825 -121.1435 84° East  Level FlightAware Approximate
08:56AM 36.6919 -121.5758 80° East 284 327 11,200  Level Oakland Center
08:57AM 36.7000 -121.0035 90° East  Level FlightAware Approximate
08:57AM 36.7036 -121.4731 82° East 295 339 13,100  Level Oakland Center
08:58AM 36.7150 -121.3669 82° East 305 351 14,600 1,686 Climbing Oakland Center
08:59AM 36.7286 -121.2506 82° East 328 377 16,500 1,587 Climbing Oakland Center
09:00AM 36.7425 -121.1356 81° East 335 386 17,800 1,200 Climbing Oakland Center
09:01AM 36.7553 -121.0158 82° East 344 396 18,900 1,200 Climbing Oakland Center
09:02AM 36.7694 -120.8908 82° East 357 411 20,200 1,300 Climbing Oakland Center
09:03AM 36.7839 -120.7631 82° East 370 426 21,500 1,240 Climbing Oakland Center
09:04AM 36.7975 -120.6339 82° East 375 432 22,700 1,091 Climbing Oakland Center
09:05AM 36.8117 -120.5028 82° East 383 441 23,700 1,000 Climbing Oakland Center
09:06AM 36.8244 -120.3747 83° East 390 449 24,700 1,000 Climbing Oakland Center
09:07AM 36.8389 -120.2419 82° East 391 450 25,700 893 Climbing Oakland Center
09:08AM 36.8539 -120.1014 82° East 392 451 26,500 793 Climbing Oakland Center
09:09AM 36.8683 -119.9631 83° East 399 459 27,300 950 Climbing Oakland Center
09:10AM 36.8831 -119.8303 82° East 388 447 28,400 893 Climbing Oakland Center
09:11AM 36.9386 -119.7181 58° Northeast 377 434 29,100 893 Climbing Oakland Center
09:12AM 36.9994 -119.6114 54° Northeast 378 435 30,200 850 Climbing Oakland Center
09:13AM 37.0597 -119.5058 54° Northeast 373 429 30,800 595 Climbing Oakland Center
09:14AM 37.1194 -119.3972 55° Northeast 378 435 31,400 545 Climbing Oakland Center
09:15AM 37.1803 -119.2908 54° Northeast 373 429 31,900 450 Climbing Oakland Center
09:16AM 37.2406 -119.1811 55° Northeast 381 438 32,300 397 Climbing Oakland Center
09:17AM 37.3017 -119.0731 55° Northeast 381 438 32,700 347 Climbing Oakland Center
09:18AM 37.3592 -118.9608 57° Northeast 381 438 33,000 149 Climbing Oakland Center
09:19AM 37.4217 -118.8486 55° Northeast 389 448 33,000  Level Oakland Center
09:20AM 37.4786 -118.6975 65° Northeast 412 474 33,000  Level Oakland Center
09:21AM 37.5211 -118.5642 68° East 413 475 33,000  Level Oakland Center
09:22AM 37.5647 -118.4289 68° East 417 480 33,000  Level Oakland Center
09:23AM 37.6083 -118.2939 68° East 417 480 33,000  Level Oakland Center
09:24AM 37.6492 -118.1650 68° East 400 460 33,000  Level Oakland Center
09:25AM 37.6897 -118.0392 68° East 391 450 33,000  Level Oakland Center
09:26AM 37.7300 -117.9181 67° East 378 435 33,000  Level Oakland Center
09:27AM 37.7697 -117.7936 68° East 382 440 33,000  Level Oakland Center
09:28AM 37.8100 -117.6664 68° East 387 445 33,000  Level Oakland Center
09:29AM 37.8514 -117.5369 68° East 396 456 33,000  Level Oakland Center
09:31AM 37.8919 -117.4061 69° East 400 460 33,000  Level Oakland Center
09:32AM 37.9336 -117.2750 68° East 404 465 33,000  Level Oakland Center
09:33AM 37.9739 -117.1436 69° East 407 468 33,000  Level Oakland Center
09:34AM 38.0150 -117.0114 68° East 410 472 33,000  Level Oakland Center
09:35AM 38.0647 -116.8514 68° East 411 473 33,000  Level Oakland Center
09:35AM 38.0731 -116.8250 68° East 412 474 33,000  Level Salt Lake Center
09:36AM 38.1139 -116.6900 69° East 412 474 33,000  Level Salt Lake Center
09:37AM 38.1475 -116.5800 69° East 415 478 33,000  Level Oakland Center
09:38AM 38.1889 -116.4431 69° East 417 480 33,000  Level Oakland Center
09:39AM 38.2311 -116.3042 69° East 420 483 33,000  Level Oakland Center
09:39AM 38.2400 -116.2764 68° East 421 484 33,000  Level Salt Lake Center
09:40AM 38.2900 -116.1086 69° East 423 487 33,000  Level Salt Lake Center
09:41AM 38.3314 -115.9697 69° East 420 483 33,000  Level Salt Lake Center
09:42AM 38.3739 -115.8269 69° East 427 491 33,000  Level Salt Lake Center
09:43AM 38.4175 -115.6858 68° East 428 493 33,000  Level Salt Lake Center
09:44AM 38.4597 -115.5433 69° East 430 495 33,000  Level Salt Lake Center
09:45AM 38.5017 -115.4003 69° East 431 496 33,000  Level Salt Lake Center
09:46AM 38.5411 -115.2619 70° East 433 498 33,000  Level Salt Lake Center
09:47AM 38.5844 -115.1172 69° East 435 501 33,000  Level Salt Lake Center
09:48AM 38.6250 -114.9719 70° East 435 501 33,000  Level Salt Lake Center
09:49AM 38.6753 -114.7975 70° East 435 501 33,000  Level Salt Lake Center
09:50AM 38.7181 -114.6506 69° East 440 506 33,000  Level Salt Lake Center
09:51AM 38.7589 -114.5044 70° East 437 503 33,000  Level Salt Lake Center
09:52AM 38.8000 -114.3569 70° East 438 504 33,000  Level Salt Lake Center
09:53AM 38.8408 -114.2103 70° East 437 503 33,000  Level Salt Lake Center
09:54AM 38.8822 -114.0633 70° East 438 504 33,000  Level Salt Lake Center
09:55AM 38.9225 -113.9175 70° East 435 501 33,000  Level Salt Lake Center
09:56AM 38.9631 -113.7708 70° East 436 502 33,000  Level Salt Lake Center
09:57AM 39.0033 -113.6233 71° East 438 504 33,000  Level Salt Lake Center
09:58AM 39.0431 -113.4753 71° East 438 504 33,000  Level Salt Lake Center
09:59AM 39.0908 -113.2992 71° East 436 502 33,000  Level Salt Lake Center
10:00AM 39.1314 -113.1531 70° East 434 499 33,000  Level Salt Lake Center
10:01AM 39.1697 -113.0039 72° East 436 502 33,000  Level Salt Lake Center
10:02AM 39.2089 -112.8611 70° East 428 493 33,000  Level Salt Lake Center
10:03AM 39.2469 -112.7167 71° East 426 490 33,000  Level Salt Lake Center
10:04AM 39.2814 -112.5869 71° East 420 483 33,000  Level Salt Lake Center
10:05AM 39.3203 -112.4169 73° East 415 478 33,000  Level Salt Lake Center
10:07AM 39.3472 -112.2731 76° East 414 476 33,000  Level Salt Lake Center
10:08AM 39.3736 -112.1294 77° East 413 475 33,000  Level Salt Lake Center
10:09AM 39.4000 -111.9867 77° East 412 474 33,000  Level Salt Lake Center
10:10AM 39.4258 -111.8442 77° East 410 472 33,000  Level Salt Lake Center
10:11AM 39.4519 -111.7025 77° East 409 471 33,000  Level Salt Lake Center
10:12AM 39.4775 -111.5594 77° East 409 471 33,000  Level Salt Lake Center
10:13AM 39.5078 -111.3894 77° East 407 468 33,000  Level Salt Lake Center
10:14AM 39.5308 -111.2594 77° East 406 467 33,000  Level Salt Lake Center
10:15AM 39.5583 -111.1003 77° East 407 468 33,000  Level Salt Lake Center
10:16AM 39.5819 -110.9642 77° East 406 467 33,000  Level Salt Lake Center
10:17AM 39.6047 -110.8269 78° East 406 467 33,000  Level Salt Lake Center
10:18AM 39.6347 -110.6667 76° East 409 471 33,000  Level Salt Lake Center
10:19AM 39.6572 -110.5297 78° East 407 468 33,000  Level Salt Lake Center
10:20AM 39.6828 -110.3683 78° East 409 471 33,000  Level Salt Lake Center
10:21AM 39.7061 -110.2306 78° East 409 471 33,000  Level Salt Lake Center
10:22AM 39.7300 -110.0928 77° East 410 472 33,000  Level Salt Lake Center
10:23AM 39.7567 -109.9317 78° East 409 471 33,000  Level Salt Lake Center
10:24AM 39.7789 -109.7928 78° East 410 472 33,000  Level Salt Lake Center
10:25AM 39.8050 -109.6317 78° East 408 470 33,000  Level Salt Lake Center
10:26AM 39.8275 -109.4914 78° East 412 474 33,000  Level Salt Lake Center
10:27AM 39.8500 -109.3519 78° East 410 472 33,000  Level Salt Lake Center
10:28AM 39.8761 -109.1867 78° East 411 473 33,000  Level Denver Center
10:29AM 39.9017 -109.0219 79° East 413 475 33,000  Level Denver Center
10:30AM 39.9214 -108.9072 77° East 411 473 33,000  Level Salt Lake Center
10:31AM 39.9461 -108.7419 79° East 412 474 33,000  Level Salt Lake Center
10:32AM 39.9678 -108.6006 79° East 412 474 33,000  Level Salt Lake Center
10:33AM 39.9922 -108.4367 79° East 412 474 33,000  Level Salt Lake Center
10:34AM 40.0133 -108.2942 79° East 415 478 33,000  Level Salt Lake Center
10:35AM 40.0344 -108.1531 79° East 414 476 33,000  Level Salt Lake Center
10:36AM 40.0572 -107.9897 80° East 411 473 33,000  Level Salt Lake Center
10:37AM 40.0783 -107.8231 81° East 414 476 33,000  Level Denver Center
10:38AM 40.0986 -107.6575 81° East 414 476 33,000  Level Denver Center
10:39AM 40.1158 -107.5150 81° East 416 479 33,000  Level Denver Center
10:41AM 40.1369 -107.3489 81° East 415 478 33,000  Level Denver Center
10:42AM 40.1542 -107.2064 81° East 416 479 33,000  Level Denver Center
10:43AM 40.1722 -107.0631 81° East 417 480 33,000  Level Denver Center
10:44AM 40.1933 -106.8947 81° East 419 482 33,000  Level Denver Center
10:45AM 40.2103 -106.7503 81° East 421 484 33,000  Level Denver Center
10:46AM 40.2306 -106.5842 81° East 419 482 33,000  Level Denver Center
10:47AM 40.2467 -106.4361 82° East 422 486 33,000 -484 Level Denver Center
10:48AM 40.2656 -106.2639 82° East 427 491 32,000 -1,613 Descending Denver Center
10:50AM 40.3008 -105.9581 81° East 424 488 28,000 -1,935 Descending Denver Center
10:51AM 40.3153 -105.8167 82° East 391 450 26,000 -2,081 Descending Denver Center
10:52AM 40.3325 -105.6603 82° East 372 428 23,700 -1,887 Descending Denver Center
10:53AM 40.3456 -105.5311 82° East 358 412 22,100 -1,694 Descending Denver Center
10:54AM 40.3356 -105.3917 95° East 399 459 20,200 -1,935 Descending Denver Center
10:55AM 40.2608 -105.2842 132° Southeast 377 434 18,100 -1,645 Descending Denver Center
10:56AM 40.2078 -105.2042 131° Southeast 376 433 16,800 -1,403 Descending Denver Center
10:57AM 40.1239 -105.0728 130° Southeast 359 413 15,200 -1,248 Descending Denver Center
10:58AM 40.0608 -104.9758 130° Southeast 350 403 14,200 -960 Descending Denver Center
10:59AM 39.9983 -104.8794 130° Southeast 348 400 13,200 -1,065 Descending Denver Center
11:00AM 39.9192 -104.8011 143° Southeast 344 396 12,000 -1,065 Descending Denver Center
11:01AM 39.8342 -104.8069 183° South 309 356 11,000 -823 Descending Denver Center
11:02AM 39.7556 -104.8094 181° South 263 303 10,300 -968 Descending Denver Center
11:03AM 39.6853 -104.7986 173° South 261 300 9,000 -677 Descending Denver Center
11:04AM 39.6619 -104.7278 113° Southeast 230 265 8,900 -97 Descending Denver Center

Login

Don't have an account? Register now (free) for customized features, flight alerts, and more!